createdAt,value
2022-09-29T00:01:42.627Z,100242.38
2022-09-29T00:04:09.718Z,100246.13
2022-09-29T00:06:36.215Z,100248.25
2022-09-29T00:09:02.950Z,100251.94
2022-09-29T00:11:29.402Z,100254.34
2022-09-29T00:13:56.002Z,100247.25
2022-09-29T00:16:22.579Z,100246.75
2022-09-29T00:18:49.090Z,100249.16
2022-09-29T00:21:19.790Z,100247.59
2022-09-29T00:23:47.181Z,100253.94
2022-09-29T00:26:19.726Z,100250.78
2022-09-29T00:28:53.746Z,100243.41
2022-09-29T00:31:21.443Z,100242.41
2022-09-29T00:33:47.965Z,100247.44
2022-09-29T00:36:17.444Z,100248.00
2022-09-29T00:38:46.145Z,100239.31
2022-09-29T00:41:18.988Z,100239.88
2022-09-29T00:44:00.729Z,100232.75
2022-09-29T00:46:48.560Z,100243.13
2022-09-29T00:49:28.337Z,100240.75
2022-09-29T00:52:16.729Z,100241.28
2022-09-29T00:55:06.620Z,100235.47
2022-09-29T00:57:38.935Z,100240.78
2022-09-29T01:00:11.776Z,100248.19
2022-09-29T01:02:46.951Z,100243.97
2022-09-29T01:05:19.006Z,100243.19
2022-09-29T01:07:46.214Z,100240.81
2022-09-29T01:10:17.174Z,100244.25
2022-09-29T01:12:47.222Z,100245.03
2022-09-29T01:15:16.317Z,100244.50
2022-09-29T01:17:43.630Z,100249.31
2022-09-29T01:20:20.698Z,100246.94
2022-09-29T01:23:30.091Z,100240.06
2022-09-29T01:26:34.393Z,100248.00
2022-09-29T01:29:23.182Z,100243.00
2022-09-29T01:31:55.333Z,100251.19
2022-09-29T01:34:39.145Z,100247.25
2022-09-29T01:37:24.315Z,100249.13
2022-09-29T01:39:59.678Z,100250.75
2022-09-29T01:42:36.691Z,100246.28
2022-09-29T01:45:15.347Z,100251.06
2022-09-29T01:47:49.208Z,100247.91
2022-09-29T01:50:22.820Z,100254.50
2022-09-29T01:52:55.217Z,100252.94
2022-09-29T01:55:26.173Z,100254.00
2022-09-29T01:58:09.327Z,100246.88
2022-09-29T02:00:41.158Z,100254.28
2022-09-29T02:03:26.369Z,100258.78
2022-09-29T02:05:57.046Z,100258.28
2022-09-29T02:08:33.231Z,100255.88
2022-09-29T02:11:03.604Z,100249.03
2022-09-29T02:13:33.446Z,100262.50
2022-09-29T02:16:02.323Z,100266.22
2022-09-29T02:18:35.013Z,100264.63
2022-09-29T02:21:01.757Z,100258.56
2022-09-29T02:23:28.394Z,100261.22
2022-09-29T02:25:57.702Z,100255.41
2022-09-29T02:28:24.821Z,100255.69
2022-09-29T02:30:52.567Z,100256.50
2022-09-29T02:33:21.436Z,100257.03
2022-09-29T02:35:58.619Z,100253.06
2022-09-29T02:38:35.546Z,100257.06
2022-09-29T02:41:07.317Z,100256.53
2022-09-29T02:43:39.796Z,100254.97
2022-09-29T02:46:47.674Z,100254.16
2022-09-29T02:49:59.542Z,100258.41
2022-09-29T02:52:31.745Z,100254.44
2022-09-29T02:55:11.611Z,100255.25
2022-09-29T02:57:58.921Z,100262.13
2022-09-29T03:00:26.645Z,100258.69
2022-09-29T03:02:53.226Z,100264.25
2022-09-29T03:05:22.689Z,100258.72
2022-09-29T03:07:49.195Z,100264.00
2022-09-29T03:10:17.255Z,100264.28
2022-09-29T03:12:43.864Z,100256.63
2022-09-29T03:15:12.561Z,100264.28
2022-09-29T03:17:40.194Z,100259.78
2022-09-29T03:20:08.312Z,100265.88
2022-09-29T03:22:35.085Z,100258.50
2022-09-29T03:25:01.990Z,100256.13
2022-09-29T03:27:28.887Z,100251.88
2022-09-29T03:29:55.551Z,100262.19
2022-09-29T03:32:22.523Z,100257.72
2022-09-29T03:34:50.076Z,100256.41
2022-09-29T03:37:16.866Z,100259.03
2022-09-29T03:39:43.610Z,100263.53
2022-09-29T03:42:10.134Z,100269.59
2022-09-29T03:44:36.756Z,100265.66
2022-09-29T03:47:03.492Z,100272.78
2022-09-29T03:49:30.432Z,100273.03
2022-09-29T03:51:57.272Z,100270.66
2022-09-29T03:54:26.727Z,100279.34
2022-09-29T04:04:10.932Z,100281.75
2022-09-29T04:06:37.623Z,100285.44
2022-09-29T04:09:04.556Z,100281.22
2022-09-29T04:11:31.510Z,100279.91
2022-09-29T04:13:58.040Z,100287.31
2022-09-29T04:16:24.826Z,100279.13
2022-09-29T04:18:51.590Z,100288.09
2022-09-29T04:21:18.111Z,100292.06
2022-09-29T04:23:44.732Z,100294.94
2022-09-29T04:26:11.254Z,100300.22
2022-09-29T04:28:38.836Z,100302.84
2022-09-29T04:31:07.347Z,100304.19
2022-09-29T04:33:34.727Z,100299.69
2022-09-29T04:36:01.512Z,100299.16
2022-09-29T04:38:28.050Z,100303.66
2022-09-29T04:40:54.835Z,100306.28
2022-09-29T04:43:21.716Z,100312.09
2022-09-29T04:45:48.418Z,100302.31
2022-09-29T04:48:15.505Z,100303.91
2022-09-29T04:50:42.596Z,100303.91
2022-09-29T04:53:11.189Z,100301.53
2022-09-29T04:55:38.537Z,100304.47
2022-09-29T04:58:05.696Z,100306.56
2022-09-29T05:00:32.841Z,100310.78
2022-09-29T05:03:00.458Z,100313.94
2022-09-29T05:05:27.287Z,100312.06
2022-09-29T05:07:53.815Z,100315.53
2022-09-29T05:10:20.973Z,100319.47
2022-09-29T05:12:50.789Z,100314.72
2022-09-29T05:15:21.055Z,100315.25
2022-09-29T05:17:50.051Z,100321.84
2022-09-29T05:20:16.763Z,100323.13
2022-09-29T05:22:43.176Z,100319.19
2022-09-29T05:25:10.019Z,100323.13
2022-09-29T05:27:37.590Z,100327.88
2022-09-29T05:30:04.975Z,100333.94
2022-09-29T05:32:31.436Z,100338.66
2022-09-29T05:34:58.052Z,100336.81
2022-09-29T05:37:24.627Z,100337.88
2022-09-29T05:39:51.293Z,100337.59
2022-09-29T05:42:17.952Z,100346.81
2022-09-29T05:44:44.445Z,100343.66
2022-09-29T05:47:11.157Z,100350.00
2022-09-29T05:49:39.176Z,100352.63
2022-09-29T05:52:05.939Z,100356.06
2022-09-29T05:54:32.616Z,100358.44
2022-09-29T05:56:59.357Z,100359.22
2022-09-29T05:59:25.789Z,100361.84
2022-09-29T06:01:52.306Z,100370.28
2022-09-29T06:04:18.907Z,100369.75
2022-09-29T06:06:46.674Z,100369.75
2022-09-29T06:09:13.404Z,100368.69
2022-09-29T06:11:40.222Z,100374.78
2022-09-29T06:14:06.779Z,100372.66
2022-09-29T06:16:34.463Z,100377.66
2022-09-29T06:19:01.898Z,100373.19
2022-09-29T06:21:29.593Z,100371.91
2022-09-29T06:23:57.677Z,100377.94
2022-09-29T06:26:25.749Z,100371.06
2022-09-29T06:28:54.083Z,100386.09
2022-09-29T06:31:23.350Z,100383.72
2022-09-29T06:33:50.022Z,100384.25
2022-09-29T06:36:48.230Z,100390.88
2022-09-29T06:39:17.235Z,100389.31
2022-09-29T06:41:52.198Z,100386.91
2022-09-29T06:44:19.391Z,100394.84
2022-09-29T06:46:46.008Z,100391.69
2022-09-29T06:49:15.322Z,100390.41
2022-09-29T06:51:46.074Z,100396.97
2022-09-29T06:54:14.963Z,100403.56
2022-09-29T06:56:42.600Z,100406.50
2022-09-29T06:59:09.363Z,100416.25
2022-09-29T07:01:35.955Z,100413.06
2022-09-29T07:04:02.792Z,100415.19
2022-09-29T07:06:30.339Z,100421.00
2022-09-29T07:08:58.300Z,100419.94
2022-09-29T07:11:26.454Z,100416.81
2022-09-29T07:13:54.861Z,100418.13
2022-09-29T07:16:25.719Z,100413.13
2022-09-29T07:18:52.909Z,100416.81
2022-09-29T07:21:19.826Z,100418.91
2022-09-29T07:23:47.569Z,100430.53
2022-09-29T07:26:16.706Z,100433.69
2022-09-29T07:28:44.745Z,100432.38
2022-09-29T07:31:15.900Z,100437.91
2022-09-29T07:33:44.131Z,100436.34
2022-09-29T07:36:11.608Z,100435.28
2022-09-29T07:38:38.067Z,100439.00
2022-09-29T07:41:10.671Z,100441.66
2022-09-29T07:43:38.200Z,100442.13
2022-09-29T07:46:05.714Z,100449.03
2022-09-29T07:48:33.753Z,100451.44
2022-09-29T07:51:10.377Z,100448.78
2022-09-29T07:53:37.427Z,100460.13
2022-09-29T07:56:11.998Z,100465.13
2022-09-29T07:58:39.940Z,100466.72
2022-09-29T08:01:10.705Z,100473.56
2022-09-29T08:03:39.368Z,100472.50
2022-09-29T08:06:07.666Z,100477.78
2022-09-29T08:08:38.210Z,100476.72
2022-09-29T08:11:09.816Z,100487.28
2022-09-29T08:13:37.796Z,100485.41
2022-09-29T08:16:08.470Z,100488.31
2022-09-29T08:18:37.536Z,100485.94
2022-09-29T08:21:05.659Z,100489.34
2022-09-29T08:23:38.496Z,100485.13
2022-09-29T08:26:15.901Z,100491.16
2022-09-29T08:29:00.906Z,100492.72
2022-09-29T08:31:31.731Z,100501.19
2022-09-29T08:33:59.429Z,100504.31
2022-09-29T08:36:28.342Z,100511.94
2022-09-29T08:38:57.301Z,100520.41
2022-09-29T08:41:29.933Z,100511.38
2022-09-29T08:44:03.344Z,100519.28
2022-09-29T08:46:42.765Z,100514.50
2022-09-29T08:49:31.110Z,100522.16
2022-09-29T08:52:16.270Z,100526.09
2022-09-29T08:54:49.026Z,100526.03
2022-09-29T08:57:21.518Z,100530.25
2022-09-29T09:00:00.044Z,100530.19
2022-09-29T09:02:57.261Z,100538.91
2022-09-29T09:05:40.289Z,100531.47
2022-09-29T09:08:31.370Z,100544.91
2022-09-29T09:11:34.729Z,100540.34
2022-09-29T09:14:27.335Z,100546.16
2022-09-29T09:17:16.072Z,100551.63
2022-09-29T09:20:01.789Z,100552.91
2022-09-29T09:22:41.502Z,100549.94
2022-09-29T09:25:20.784Z,100547.25
2022-09-29T09:27:59.463Z,100545.63
2022-09-29T09:30:37.996Z,100541.88
2022-09-29T09:33:24.610Z,100547.94
2022-09-29T09:36:02.357Z,100546.06
2022-09-29T09:38:54.660Z,100551.03
2022-09-29T09:41:24.355Z,100544.03
2022-09-29T09:43:56.552Z,100553.25
2022-09-29T09:46:42.248Z,100558.72
2022-09-29T09:49:17.797Z,100547.00
2022-09-29T09:52:03.917Z,100546.66
2022-09-29T09:54:38.392Z,100551.63
2022-09-29T09:57:32.368Z,100552.06
2022-09-29T10:00:10.096Z,100551.22
2022-09-29T10:02:43.976Z,100557.19
2022-09-29T10:05:17.748Z,100562.44
2022-09-29T10:07:45.706Z,100555.22
2022-09-29T10:10:22.217Z,100551.50
2022-09-29T10:12:59.743Z,100553.78
2022-09-29T10:15:35.993Z,100555.59
2022-09-29T10:18:12.738Z,100556.59
2022-09-29T10:20:39.804Z,100554.66
2022-09-29T10:23:29.471Z,100560.13
2022-09-29T10:26:04.856Z,100562.44
2022-09-29T10:28:47.628Z,100551.97
2022-09-29T10:31:28.829Z,100556.63
2022-09-29T10:34:16.524Z,100560.47
2022-09-29T10:36:56.332Z,100561.19
2022-09-29T10:39:48.336Z,100559.47
2022-09-29T10:42:25.182Z,100559.59
2022-09-29T10:45:05.291Z,100556.31
2022-09-29T10:47:34.158Z,100557.81
2022-09-29T10:50:08.140Z,100556.84
2022-09-29T10:52:36.101Z,100552.44
2022-09-29T10:55:04.267Z,100556.78
2022-09-29T10:57:33.909Z,100556.03
2022-09-29T11:00:01.740Z,100560.16
2022-09-29T11:02:38.849Z,100559.97
2022-09-29T11:05:21.778Z,100556.03
2022-09-29T11:07:51.414Z,100562.53
2022-09-29T11:10:31.915Z,100555.13
2022-09-29T11:13:00.835Z,100553.16
2022-09-29T11:15:38.681Z,100549.97
2022-09-29T11:18:20.623Z,100555.38
2022-09-29T11:21:02.935Z,100549.84
2022-09-29T11:23:46.928Z,100559.78
2022-09-29T11:26:40.779Z,100558.00
2022-09-29T11:29:16.037Z,100560.75
2022-09-29T11:31:50.131Z,100557.25
2022-09-29T11:34:34.340Z,100563.16
2022-09-29T11:37:17.459Z,100558.59
2022-09-29T11:39:57.148Z,100569.50
2022-09-29T11:42:57.007Z,100565.75
2022-09-29T11:45:35.774Z,100568.94
2022-09-29T11:48:30.592Z,100561.59
2022-09-29T11:51:09.529Z,100565.44
2022-09-29T11:53:54.707Z,100563.09
2022-09-29T11:56:35.792Z,100568.97
2022-09-29T11:59:23.403Z,100566.66
2022-09-29T12:02:05.252Z,100575.00
2022-09-29T12:04:49.982Z,100568.44
2022-09-29T12:07:34.445Z,100570.16
2022-09-29T12:10:16.346Z,100575.56
2022-09-29T12:13:00.871Z,100574.00
2022-09-29T12:15:50.072Z,100579.38
2022-09-29T12:18:54.206Z,100586.50
2022-09-29T12:21:31.319Z,100580.41
2022-09-29T12:24:01.316Z,100573.97
2022-09-29T12:26:28.305Z,100585.47
2022-09-29T12:29:20.029Z,100578.41
2022-09-29T12:31:50.495Z,100578.88
2022-09-29T12:34:35.479Z,100577.03
2022-09-29T12:37:07.686Z,100581.25
2022-09-29T12:39:46.321Z,100585.81
2022-09-29T12:42:17.781Z,100585.31
2022-09-29T12:44:50.691Z,100579.34
2022-09-29T12:47:38.931Z,100588.78
2022-09-29T12:50:14.121Z,100582.94
2022-09-29T12:52:53.849Z,100588.63
2022-09-29T12:55:32.331Z,100574.91
2022-09-29T12:58:02.525Z,100580.88
2022-09-29T13:00:33.987Z,100578.84
2022-09-29T13:03:02.076Z,100579.81
2022-09-29T13:06:06.082Z,100579.16
2022-09-29T13:08:58.846Z,100591.09
2022-09-29T13:11:50.400Z,100583.38
2022-09-29T13:15:02.808Z,100590.94
2022-09-29T13:17:58.682Z,100600.56
2022-09-29T13:20:51.763Z,100601.38
2022-09-29T13:23:48.022Z,100601.84
2022-09-29T13:26:30.638Z,100588.78
2022-09-29T13:29:03.164Z,100600.44
2022-09-29T13:31:36.268Z,100602.78
2022-09-29T13:34:04.338Z,100607.50
2022-09-29T13:36:44.077Z,100613.78
2022-09-29T13:39:22.344Z,100604.53
2022-09-29T13:41:48.984Z,100612.69
2022-09-29T13:44:18.241Z,100606.72
2022-09-29T13:46:45.479Z,100611.91
2022-09-29T13:49:12.106Z,100604.50
2022-09-29T13:52:00.658Z,100609.72
2022-09-29T13:54:34.117Z,100608.31
2022-09-29T13:57:26.246Z,100609.88
2022-09-29T13:59:57.007Z,100603.41
2022-09-29T14:02:41.371Z,100615.03
2022-09-29T14:05:25.543Z,100614.41
2022-09-29T14:07:54.951Z,100614.75
2022-09-29T14:10:24.450Z,100620.84
2022-09-29T14:13:03.584Z,100620.22
2022-09-29T14:15:37.161Z,100620.41
2022-09-29T14:18:13.882Z,100619.75
2022-09-29T14:20:59.207Z,100615.34
2022-09-29T14:23:49.383Z,100612.38
2022-09-29T14:26:53.794Z,100623.25
2022-09-29T14:29:27.357Z,100627.47
2022-09-29T14:31:58.616Z,100627.94
2022-09-29T14:34:30.093Z,100624.97
2022-09-29T14:36:59.738Z,100626.22
2022-09-29T14:39:27.782Z,100631.91
2022-09-29T14:41:54.648Z,100629.38
2022-09-29T14:44:52.174Z,100638.97
2022-09-29T14:47:40.228Z,100637.53
2022-09-29T14:50:34.540Z,100649.50
2022-09-29T14:53:22.290Z,100648.88
2022-09-29T14:56:16.114Z,100645.56
2022-09-29T14:58:45.578Z,100643.69
2022-09-29T15:01:31.086Z,100646.69
2022-09-29T15:04:07.261Z,100658.47
2022-09-29T15:06:34.042Z,100656.13
2022-09-29T15:09:04.565Z,100656.91
2022-09-29T15:11:31.286Z,100657.22
2022-09-29T15:14:02.020Z,100666.66
2022-09-29T15:16:43.478Z,100661.78
2022-09-29T15:19:17.753Z,100665.88
2022-09-29T15:22:03.896Z,100665.22
2022-09-29T15:25:01.988Z,100668.53
2022-09-29T15:27:28.704Z,100670.91
2022-09-29T15:29:57.381Z,100672.47
2022-09-29T15:32:28.966Z,100675.63
2022-09-29T15:35:03.645Z,100677.50
2022-09-29T15:37:47.860Z,100682.88
2022-09-29T15:40:16.228Z,100679.72
2022-09-29T15:42:42.768Z,100672.47
2022-09-29T15:45:18.688Z,100682.69
2022-09-29T15:47:45.265Z,100684.13
2022-09-29T15:50:21.153Z,100688.22
2022-09-29T15:52:48.878Z,100691.50
2022-09-29T15:55:18.065Z,100684.59
2022-09-29T15:57:53.197Z,100687.56
2022-09-29T16:00:23.096Z,100696.72
2022-09-29T16:02:54.613Z,100683.19
2022-09-29T16:05:25.666Z,100684.59
2022-09-29T16:08:05.440Z,100694.00
2022-09-29T16:10:36.488Z,100708.00
2022-09-29T16:13:08.648Z,100706.28
2022-09-29T16:15:42.685Z,100707.69
2022-09-29T16:18:16.173Z,100719.78
2022-09-29T16:20:44.630Z,100709.44
2022-09-29T16:23:36.577Z,100710.03
2022-09-29T16:26:08.864Z,100718.69
2022-09-29T16:28:38.564Z,100721.97
2022-09-29T16:31:19.364Z,100733.28
2022-09-29T16:33:54.467Z,100734.69
2022-09-29T16:36:27.309Z,100741.44
2022-09-29T16:38:55.322Z,100739.88
2022-09-29T16:41:39.256Z,100746.31
2022-09-29T16:44:17.333Z,100740.00
2022-09-29T16:46:47.043Z,100751.31
2022-09-29T16:49:20.931Z,100747.69
2022-09-29T16:51:49.827Z,100749.41
2022-09-29T16:54:21.419Z,100749.22
2022-09-29T16:56:49.960Z,100756.28
2022-09-29T16:59:18.842Z,100758.78
2022-09-29T17:01:48.843Z,100761.59
2022-09-29T17:04:15.687Z,100760.91
2022-09-29T17:06:47.018Z,100760.28
2022-09-29T17:09:20.161Z,100766.03
2022-09-29T17:11:48.549Z,100774.94
2022-09-29T17:14:17.028Z,100772.72
2022-09-29T17:16:44.055Z,100774.72
2022-09-29T17:19:11.932Z,100777.03
2022-09-29T17:21:38.798Z,100776.34
2022-09-29T17:24:05.528Z,100785.28
2022-09-29T17:26:56.367Z,100787.56
2022-09-29T17:29:22.966Z,100785.03
2022-09-29T17:31:49.617Z,100795.50
2022-09-29T17:34:17.381Z,100792.97
2022-09-29T17:36:44.851Z,100793.88
2022-09-29T17:39:11.501Z,100791.91
2022-09-29T17:41:40.544Z,100804.06
2022-09-29T17:44:10.155Z,100802.59
2022-09-29T17:46:38.234Z,100802.53
2022-09-29T17:49:11.281Z,100799.94
2022-09-29T17:51:37.953Z,100804.63
2022-09-29T17:54:04.875Z,100802.81
2022-09-29T17:56:37.355Z,100812.81
2022-09-29T17:59:05.933Z,100815.06
2022-09-29T18:01:34.833Z,100813.09
2022-09-29T18:04:03.324Z,100814.28
2022-09-29T18:06:30.434Z,100813.59
2022-09-29T18:08:57.760Z,100820.06
2022-09-29T18:11:26.305Z,100819.66
2022-09-29T18:13:53.287Z,100823.22
2022-09-29T18:16:23.596Z,100832.88
2022-09-29T18:18:56.693Z,100827.34
2022-09-29T18:21:25.263Z,100837.31
2022-09-29T18:23:51.809Z,100839.75
2022-09-29T18:26:18.753Z,100847.53
2022-09-29T18:28:48.996Z,100849.19
2022-09-29T18:31:26.564Z,100842.09
2022-09-29T18:33:54.510Z,100841.88
2022-09-29T18:36:21.587Z,100837.91
2022-09-29T18:38:48.435Z,100848.66
2022-09-29T18:41:20.254Z,100848.72
2022-09-29T18:43:48.143Z,100861.31
2022-09-29T18:46:15.629Z,100860.31
2022-09-29T18:48:42.401Z,100863.06
2022-09-29T18:51:13.471Z,100861.84
2022-09-29T18:53:41.540Z,100880.03
2022-09-29T18:56:14.491Z,100880.91
2022-09-29T18:58:41.059Z,100881.19
2022-09-29T19:01:14.432Z,100881.75
2022-09-29T19:03:41.978Z,100883.41
2022-09-29T19:06:09.466Z,100894.63
2022-09-29T19:08:36.372Z,100891.22
2022-09-29T19:11:04.680Z,100891.56
2022-09-29T19:13:31.547Z,100900.41
2022-09-29T19:15:59.628Z,100903.94
2022-09-29T19:18:27.206Z,100902.91
2022-09-29T19:20:56.421Z,100909.09
2022-09-29T19:23:25.164Z,100904.59
2022-09-29T19:25:52.759Z,100903.59
2022-09-29T19:28:21.537Z,100900.41
2022-09-29T19:30:49.771Z,100907.38
2022-09-29T19:33:19.179Z,100914.31
2022-09-29T19:35:54.444Z,100912.75
2022-09-29T19:38:21.734Z,100911.47
2022-09-29T19:40:51.550Z,100918.94
2022-09-29T19:43:18.179Z,100922.16
2022-09-29T19:45:44.728Z,100926.97
2022-09-29T19:48:15.992Z,100932.81
2022-09-29T19:51:01.339Z,100935.78
2022-09-29T19:53:28.007Z,100943.78
2022-09-29T19:55:55.368Z,100948.63
2022-09-29T19:58:21.987Z,100950.28
2022-09-29T20:00:48.525Z,100956.50
2022-09-29T20:03:15.278Z,100957.31
2022-09-29T20:05:42.030Z,100963.94
2022-09-29T20:08:09.266Z,100965.53
2022-09-29T20:10:36.365Z,100963.13
2022-09-29T20:13:03.576Z,100966.59
2022-09-29T20:15:30.551Z,100972.72
2022-09-29T20:17:57.188Z,100979.66
2022-09-29T20:20:23.793Z,100972.00
2022-09-29T20:22:51.691Z,100968.06
2022-09-29T20:25:18.427Z,100979.50
2022-09-29T20:27:44.991Z,100971.56
2022-09-29T20:30:11.731Z,100969.47
2022-09-29T20:32:39.003Z,100972.91
2022-09-29T20:35:05.946Z,100975.56
2022-09-29T20:37:32.467Z,100972.94
2022-09-29T20:40:00.497Z,100980.13
2022-09-29T20:42:27.564Z,100980.13
2022-09-29T20:44:55.955Z,100985.97
2022-09-29T20:47:25.900Z,100999.53
2022-09-29T20:49:56.348Z,100997.16
2022-09-29T20:52:24.004Z,100996.63
2022-09-29T20:54:50.863Z,100997.97
2022-09-29T20:57:17.674Z,101007.25
2022-09-29T20:59:44.257Z,101011.53
2022-09-29T21:02:12.237Z,101013.16
2022-09-29T21:04:39.356Z,101013.41
2022-09-29T21:07:25.979Z,101020.34
2022-09-29T21:09:53.140Z,101020.34
2022-09-29T21:12:19.959Z,101033.06
2022-09-29T21:14:46.467Z,101028.59
2022-09-29T21:17:13.467Z,101034.19
2022-09-29T21:19:40.052Z,101033.66
2022-09-29T21:22:06.530Z,101044.53
2022-09-29T21:24:34.689Z,101040.31
2022-09-29T21:27:01.229Z,101045.88
2022-09-29T21:29:28.564Z,101044.28
2022-09-29T21:31:55.397Z,101037.66
2022-09-29T21:34:22.400Z,101031.81
2022-09-29T21:36:49.302Z,101041.13
2022-09-29T21:39:17.087Z,101037.16
2022-09-29T21:41:45.341Z,101032.91
2022-09-29T21:44:15.545Z,101038.22
2022-09-29T21:46:43.040Z,101040.63
2022-09-29T21:49:12.752Z,101045.09
2022-09-29T21:51:41.924Z,101047.53
2022-09-29T21:54:12.488Z,101047.00
2022-09-29T21:56:41.396Z,101035.59
2022-09-29T21:59:09.267Z,101045.13
2022-09-29T22:01:38.224Z,101034.00
2022-09-29T22:04:04.848Z,101040.38
2022-09-29T22:06:32.925Z,101043.00
2022-09-29T22:09:00.818Z,101052.56
2022-09-29T22:11:30.034Z,101044.31
2022-09-29T22:13:58.457Z,101055.72
2022-09-29T22:16:28.745Z,101048.81
2022-09-29T22:19:21.471Z,101048.81
2022-09-29T22:21:44.174Z,101045.34
2022-09-29T22:24:13.314Z,101044.84
2022-09-29T22:26:40.821Z,101048.28
2022-09-29T22:29:07.954Z,101048.28
2022-09-29T22:31:34.768Z,101055.72
2022-09-29T22:34:04.338Z,101060.72
2022-09-29T22:36:33.488Z,101064.47
2022-09-29T22:39:00.539Z,101063.09
2022-09-29T22:41:27.404Z,101070.78
2022-09-29T22:43:56.034Z,101062.06
2022-09-29T22:46:24.792Z,101059.16
2022-09-29T22:48:51.886Z,101060.47
2022-09-29T22:51:18.664Z,101061.00
2022-09-29T22:53:45.343Z,101066.31
2022-09-29T22:56:15.560Z,101063.66
2022-09-29T22:58:42.299Z,101066.56
2022-09-29T23:01:15.532Z,101063.13
2022-09-29T23:03:44.300Z,101064.72
2022-09-29T23:06:11.646Z,101062.06
2022-09-29T23:08:38.700Z,101054.38
2022-09-29T23:11:06.505Z,101062.31
2022-09-29T23:13:36.732Z,101062.06
2022-09-29T23:16:11.983Z,101070.25
2022-09-29T23:18:44.235Z,101075.28
2022-09-29T23:21:14.853Z,101078.22
2022-09-29T23:23:41.430Z,101069.44
2022-09-29T23:26:08.325Z,101080.88
2022-09-29T23:28:35.060Z,101079.25
2022-09-29T23:31:06.535Z,101073.19
2022-09-29T23:33:33.282Z,101078.72
2022-09-29T23:36:14.403Z,101077.41
2022-09-29T23:39:01.615Z,101078.44
2022-09-29T23:41:30.169Z,101079.00
2022-09-29T23:43:59.822Z,101076.06
2022-09-29T23:46:31.602Z,101075.28
2022-09-29T23:48:59.451Z,101075.53
2022-09-29T23:51:26.454Z,101079.50
2022-09-29T23:53:52.975Z,101072.59
2022-09-29T23:56:19.744Z,101075.50
2022-09-29T23:58:46.249Z,101080.25
